Time;durP1;ratioP1;P1;durP2;ratioP2;P2;SDS_P1;SDS_P2;PMS_P1;PMS_P2;Temp;Humidity;BMP_temperature;BMP_pressure;BME280_temperature;BME280_humidity;BME280_pressure;Samples;Min_cycle;Max_cycle;Signal;HPM_P1;HPM_P2
2023/03/07 00:00:42;;;;;;;14.33;8.43;;;0.50;99.90;0.20;99074.00;;;;4931286;28;92961;-67
2023/03/07 00:03:12;;;;;;;12.07;7.63;;;0.50;99.90;0.20;99079.00;;;;4932994;28;93008;-67
2023/03/07 00:05:38;;;;;;;10.27;7.77;;;0.50;99.90;0.10;99072.00;;;;4934306;28;93633;-67
2023/03/07 00:08:04;;;;;;;13.93;8.20;;;0.50;99.90;0.10;99071.00;;;;4931636;28;97042;-67
2023/03/07 00:10:30;;;;;;;12.63;9.37;;;0.40;99.90;0.10;99071.00;;;;4935000;28;110405;-67
2023/03/07 00:12:55;;;;;;;10.43;7.00;;;0.50;99.90;0.10;99061.00;;;;4933695;28;108219;-67
2023/03/07 00:15:21;;;;;;;15.80;8.50;;;0.40;99.90;0.10;99065.00;;;;4934166;28;120606;-68
2023/03/07 00:17:47;;;;;;;20.37;10.13;;;0.40;99.90;0.10;99056.00;;;;4923841;28;94293;-67
2023/03/07 00:20:14;;;;;;;13.37;7.27;;;0.50;99.90;0.10;99063.00;;;;4933973;28;92889;-67
2023/03/07 00:22:40;;;;;;;15.50;9.20;;;0.30;99.90;0.10;99058.00;;;;4934623;28;92833;-67
2023/03/07 00:25:07;;;;;;;13.43;9.23;;;0.50;99.90;0.10;99062.00;;;;4933741;28;93707;-67
2023/03/07 00:27:33;;;;;;;12.63;8.73;;;0.30;99.90;0.10;99052.00;;;;4934826;28;93871;-67
2023/03/07 00:30:00;;;;;;;15.20;9.87;;;0.40;99.90;0.10;99052.00;;;;4935616;28;92809;-67
2023/03/07 00:32:26;;;;;;;16.17;9.67;;;-0.40;99.90;0.10;99060.00;;;;4934956;28;92846;-67
2023/03/07 00:34:53;;;;;;;16.77;8.27;;;0.40;99.90;0.20;99049.00;;;;4935770;28;92225;-67
2023/03/07 00:37:19;;;;;;;15.40;8.77;;;0.40;99.90;0.20;99062.00;;;;4932027;28;111865;-67
2023/03/07 00:39:45;;;;;;;16.20;9.53;;;0.50;99.90;0.20;99055.00;;;;4933346;28;98376;-67
2023/03/07 00:42:10;;;;;;;19.43;9.50;;;0.60;99.90;0.20;99048.00;;;;4936279;28;93730;-67
2023/03/07 00:44:36;;;;;;;17.13;7.97;;;0.50;99.90;0.30;99043.00;;;;4933927;28;123310;-66
2023/03/07 00:47:02;;;;;;;12.93;8.60;;;0.60;99.90;0.30;99041.00;;;;4930943;28;122101;-67
2023/03/07 00:49:27;;;;;;;18.10;8.47;;;0.60;99.90;0.40;99032.00;;;;4935892;28;95016;-66
2023/03/07 00:51:53;;;;;;;12.70;7.53;;;0.70;99.90;0.40;99035.00;;;;4934322;28;108288;-67
2023/03/07 00:54:19;;;;;;;17.20;11.43;;;1.10;99.90;0.40;99028.00;;;;4934662;28;109105;-67
2023/03/07 00:56:45;;;;;;;16.53;9.87;;;0.60;99.90;0.40;99021.00;;;;4937838;28;121729;-67
2023/03/07 00:59:10;;;;;;;13.80;8.70;;;1.00;99.90;0.50;99016.00;;;;4942995;28;92199;-66
2023/03/07 01:01:36;;;;;;;17.70;10.67;;;0.70;99.90;0.50;99019.00;;;;4936175;28;107828;-66
2023/03/07 01:04:03;;;;;;;13.00;9.53;;;0.90;99.90;0.50;99014.00;;;;4931223;28;122506;-66
2023/03/07 01:06:31;;;;;;;16.17;9.40;;;1.40;99.90;0.50;99010.00;;;;4935245;28;93947;-65
2023/03/07 01:09:04;;;;;;;17.00;8.13;;;0.80;99.90;0.50;99009.00;;;;4934879;28;92899;-65
2023/03/07 01:11:31;;;;;;;17.67;10.67;;;0.90;99.90;0.50;99008.00;;;;4935362;28;92913;-66
2023/03/07 01:13:59;;;;;;;19.00;11.33;;;0.90;99.90;0.50;98988.00;;;;4934482;28;92854;-66
2023/03/07 01:16:32;;;;;;;19.30;12.23;;;0.90;99.90;0.50;98984.00;;;;4933162;28;93139;-66
2023/03/07 01:19:01;;;;;;;9.90;6.53;;;0.80;99.90;0.50;98998.00;;;;4935595;28;92899;-66
2023/03/07 01:21:32;;;;;;;14.93;10.00;;;1.80;99.90;0.50;98990.00;;;;4932639;28;93196;-68
2023/03/07 01:23:59;;;;;;;14.33;8.47;;;0.80;99.90;0.50;98991.00;;;;4934487;28;93228;-67
2023/03/07 01:26:28;;;;;;;14.67;9.67;;;0.90;99.90;0.50;98993.00;;;;4936766;28;120852;-67
2023/03/07 01:28:58;;;;;;;25.50;11.07;;;1.60;99.90;0.50;98981.00;;;;4935109;28;94637;-67
2023/03/07 01:31:25;;;;;;;15.33;9.97;;;0.90;99.90;0.60;98975.00;;;;4934359;28;93882;-65
2023/03/07 01:33:52;;;;;;;14.40;8.43;;;0.90;99.90;0.60;98961.00;;;;4933742;28;93547;-65
2023/03/07 01:36:20;;;;;;;14.67;9.60;;;0.80;99.90;0.50;98968.00;;;;4934262;28;94011;-67
2023/03/07 01:38:47;;;;;;;18.60;10.80;;;0.90;99.90;0.50;98951.00;;;;4936913;28;94353;-67
2023/03/07 01:41:14;;;;;;;16.50;9.70;;;0.80;99.90;0.50;98947.00;;;;4932198;28;93028;-66
2023/03/07 01:43:40;;;;;;;13.57;9.83;;;0.80;99.90;0.50;98948.00;;;;4920181;28;93303;-67
2023/03/07 01:46:18;;;;;;;16.20;9.13;;;0.80;99.90;0.50;98933.00;;;;4933745;28;93195;-67
2023/03/07 01:48:56;;;;;;;15.80;9.87;;;0.80;99.90;0.50;98938.00;;;;4933907;28;111144;-67
2023/03/07 01:51:23;;;;;;;17.63;11.57;;;0.20;99.90;0.50;98933.00;;;;4916237;28;92994;-68
2023/03/07 01:53:51;;;;;;;15.70;9.00;;;0.80;99.90;0.50;98942.00;;;;4918474;28;122491;-67
2023/03/07 01:56:17;;;;;;;11.77;7.93;;;0.80;99.90;0.50;98926.00;;;;4917857;28;110461;-67
2023/03/07 01:58:44;;;;;;;19.10;9.37;;;0.80;99.90;0.50;98919.00;;;;4899568;28;109521;-67
2023/03/07 02:01:14;;;;;;;15.57;8.83;;;0.80;99.90;0.50;98914.00;;;;4917395;28;108848;-67
2023/03/07 02:03:57;;;;;;;18.23;9.13;;;0.80;99.90;0.40;98925.00;;;;4933636;28;110782;-67
2023/03/07 02:06:27;;;;;;;10.53;6.70;;;0.80;99.90;0.50;98915.00;;;;4919174;28;94142;-67
2023/03/07 02:08:55;;;;;;;12.73;8.60;;;0.70;99.90;0.40;98906.00;;;;4916640;28;93766;-66
2023/03/07 02:11:21;;;;;;;12.17;7.70;;;0.70;99.90;0.40;98896.00;;;;4916439;28;95827;-67
2023/03/07 02:13:47;;;;;;;15.37;7.97;;;0.80;99.90;0.40;98901.00;;;;4919695;28;121104;-67
2023/03/07 02:16:13;;;;;;;20.27;10.40;;;0.80;99.90;0.40;98902.00;;;;4931478;28;122125;-68
2023/03/07 02:18:44;;;;;;;11.77;7.53;;;0.70;99.90;0.40;98895.00;;;;4933121;28;93126;-67
2023/03/07 02:21:33;;;;;;;13.53;9.37;;;0.70;99.90;0.30;98891.00;;;;4931473;28;93934;-68
2023/03/07 02:24:24;;;;;;;14.27;9.07;;;0.70;99.90;0.30;98891.00;;;;4931921;28;105149;-68
2023/03/07 02:26:52;;;;;;;13.37;7.77;;;0.40;99.90;0.30;98883.00;;;;4932184;28;93378;-68
2023/03/07 02:29:18;;;;;;;15.07;9.27;;;0.70;99.90;0.40;98872.00;;;;4934348;28;92670;-66
2023/03/07 02:31:43;;;;;;;17.23;9.60;;;1.30;99.90;0.40;98877.00;;;;4935575;28;93222;-66
2023/03/07 02:34:28;;;;;;;14.93;9.87;;;0.80;99.90;0.40;98862.00;;;;4937927;28;92991;-66
2023/03/07 02:37:04;;;;;;;19.57;11.00;;;0.60;99.90;0.40;98864.00;;;;4935700;28;93707;-68
2023/03/07 02:39:30;;;;;;;20.57;9.77;;;0.80;99.90;0.40;98857.00;;;;4931370;28;92155;-69
2023/03/07 02:42:00;;;;;;;18.57;9.60;;;1.00;99.90;0.40;98860.00;;;;4948375;28;93135;-68
2023/03/07 02:44:26;;;;;;;17.13;8.83;;;0.80;99.90;0.40;98854.00;;;;4931958;28;105303;-67
2023/03/07 02:46:52;;;;;;;18.10;9.87;;;0.70;99.90;0.50;98862.00;;;;4932619;28;122547;-68
2023/03/07 02:49:30;;;;;;;13.30;9.77;;;0.80;99.90;0.50;98852.00;;;;5053380;27;80793;-67
2023/03/07 02:51:59;;;;;;;16.80;12.00;;;0.90;99.90;0.60;98849.00;;;;5036283;27;81904;-68
2023/03/07 02:54:25;;;;;;;17.03;8.70;;;0.80;99.90;0.60;98848.00;;;;5067086;27;83545;-68
2023/03/07 02:56:52;;;;;;;18.60;10.43;;;1.00;99.90;0.70;98844.00;;;;5058803;27;96668;-67
2023/03/07 02:59:18;;;;;;;13.57;9.70;;;1.10;99.90;0.70;98842.00;;;;5052355;27;96534;-66
2023/03/07 03:01:50;;;;;;;18.40;8.03;;;1.00;99.90;0.70;98844.00;;;;5049459;27;81086;-67
2023/03/07 03:04:19;;;;;;;14.57;9.43;;;1.00;99.90;0.70;98835.00;;;;5047045;27;110370;-66
2023/03/07 03:06:45;;;;;;;15.83;10.10;;;1.00;99.90;0.80;98832.00;;;;5053545;27;109122;-68
2023/03/07 03:09:10;;;;;;;17.97;11.10;;;1.10;99.90;0.80;98830.00;;;;5042647;27;83388;-66
2023/03/07 03:11:36;;;;;;;19.30;11.77;;;1.10;99.90;0.80;98825.00;;;;5040727;27;113885;-67
2023/03/07 03:14:02;;;;;;;12.97;8.30;;;1.00;99.90;0.80;98818.00;;;;5047062;27;112303;-66
2023/03/07 03:16:27;;;;;;;22.47;10.53;;;1.60;99.90;0.80;98806.00;;;;5041092;27;106724;-67
2023/03/07 03:18:53;;;;;;;15.20;9.57;;;1.10;99.90;0.90;98819.00;;;;5047264;27;109935;-67
2023/03/07 03:21:19;;;;;;;16.93;10.90;;;1.10;99.90;0.90;98803.00;;;;5051211;27;109236;-67
2023/03/07 03:23:45;;;;;;;12.23;8.07;;;1.10;99.90;0.90;98799.00;;;;5050122;27;83360;-66
2023/03/07 03:26:11;;;;;;;11.97;8.90;;;1.20;99.90;1.00;98796.00;;;;5042756;27;95476;-66
2023/03/07 03:28:38;;;;;;;11.83;8.70;;;1.20;99.90;1.00;98791.00;;;;5047789;27;109971;-66
2023/03/07 03:31:10;;;;;;;16.50;8.33;;;1.20;99.90;1.00;98788.00;;;;5046300;27;102283;-65
2023/03/07 03:33:38;;;;;;;14.73;8.97;;;1.30;99.90;1.00;98795.00;;;;5047868;27;81061;-66
2023/03/07 03:36:11;;;;;;;17.27;10.87;;;1.30;99.90;1.00;98792.00;;;;5053192;27;81137;-67
2023/03/07 03:38:37;;;;;;;13.23;8.30;;;1.30;99.90;1.00;98784.00;;;;5034287;27;83445;-67
2023/03/07 03:41:06;;;;;;;18.63;9.83;;;1.60;99.90;1.00;98786.00;;;;5046731;27;82379;-66
2023/03/07 03:43:33;;;;;;;18.13;11.07;;;1.30;99.90;1.00;98767.00;;;;5050661;27;80946;-66
2023/03/07 03:45:59;;;;;;;22.00;10.60;;;1.50;99.90;1.00;98763.00;;;;5042115;27;83739;-66
2023/03/07 03:48:28;;;;;;;16.60;9.67;;;1.30;99.90;1.00;98762.00;;;;5045472;27;83192;-66
2023/03/07 03:51:21;;;;;;;15.13;9.70;;;1.30;99.90;1.00;98765.00;;;;5053460;27;80694;-67
2023/03/07 03:53:48;;;;;;;15.47;10.50;;;2.30;99.90;1.10;98750.00;;;;5014500;27;81151;-65
2023/03/07 03:56:17;;;;;;;12.97;9.37;;;1.40;99.90;1.10;98763.00;;;;5046924;27;83610;-66
2023/03/07 03:58:50;;;;;;;17.03;10.50;;;1.40;99.90;1.00;98751.00;;;;5047694;27;81979;-67
2023/03/07 04:01:19;;;;;;;12.80;9.30;;;1.40;99.90;1.00;98748.00;;;;5024523;27;89421;-67
2023/03/07 04:03:49;;;;;;;15.87;10.70;;;1.30;99.90;1.10;98735.00;;;;5034405;27;82812;-65
2023/03/07 04:06:22;;;;;;;16.67;8.70;;;1.30;99.90;1.10;98743.00;;;;5034178;27;91523;-66
2023/03/07 04:08:49;;;;;;;14.40;9.83;;;1.40;99.90;1.10;98741.00;;;;5036986;27;90837;-66
2023/03/07 04:11:16;;;;;;;13.20;8.47;;;1.30;99.90;1.10;98727.00;;;;5033572;27;80923;-66
2023/03/07 04:13:42;;;;;;;17.00;8.70;;;1.30;99.90;1.10;98727.00;;;;5034188;27;80986;-66
2023/03/07 04:16:08;;;;;;;15.13;8.70;;;1.90;99.90;1.10;98730.00;;;;5036750;27;81159;-67
2023/03/07 04:18:35;;;;;;;11.30;8.30;;;1.30;99.90;1.00;98722.00;;;;5030877;27;86004;-66
2023/03/07 04:21:01;;;;;;;10.53;7.60;;;1.30;99.90;1.10;98713.00;;;;5035052;27;97981;-65
2023/03/07 04:23:28;;;;;;;17.90;9.13;;;2.30;99.90;1.10;98710.00;;;;5034260;27;80959;-66
2023/03/07 04:25:57;;;;;;;13.70;8.20;;;1.40;99.90;1.10;98698.00;;;;5032899;27;81523;-65
2023/03/07 04:28:26;;;;;;;12.00;8.03;;;1.30;99.90;1.10;98701.00;;;;5036711;27;82289;-65
2023/03/07 04:30:52;;;;;;;10.57;7.67;;;1.40;99.90;1.10;98696.00;;;;5036571;27;81775;-64
2023/03/07 04:33:19;;;;;;;16.93;9.47;;;1.40;99.90;1.10;98701.00;;;;5040085;27;82570;-65
2023/03/07 04:35:45;;;;;;;14.93;9.47;;;1.40;99.90;1.10;98701.00;;;;5038257;27;81560;-66
2023/03/07 04:38:15;;;;;;;12.70;8.13;;;1.50;99.90;1.10;98690.00;;;;5031609;27;81629;-66
2023/03/07 04:40:41;;;;;;;13.13;8.60;;;1.40;99.90;1.10;98677.00;;;;5033959;27;104204;-65
2023/03/07 04:43:07;;;;;;;15.53;9.07;;;1.40;99.90;1.10;98684.00;;;;5034448;27;109388;-66
2023/03/07 04:45:36;;;;;;;10.43;7.23;;;1.40;99.90;1.10;98677.00;;;;5034649;27;108977;-65
2023/03/07 04:48:02;;;;;;;13.90;8.13;;;1.50;99.90;1.10;98670.00;;;;5031594;27;82534;-65
2023/03/07 04:50:28;;;;;;;11.83;7.97;;;1.60;99.90;1.10;98670.00;;;;5039637;27;99358;-66
2023/03/07 04:52:53;;;;;;;8.93;6.13;;;1.30;99.90;1.10;98676.00;;;;5037525;27;109864;-65
2023/03/07 04:55:19;;;;;;;11.23;8.50;;;1.40;99.90;1.00;98670.00;;;;5031770;27;81102;-65
2023/03/07 04:57:45;;;;;;;19.47;9.13;;;1.30;99.90;1.00;98672.00;;;;5043686;27;110847;-66
2023/03/07 05:00:12;;;;;;;11.00;6.90;;;1.30;99.90;1.10;98668.00;;;;5040997;27;81091;-66
2023/03/07 05:02:38;;;;;;;8.73;7.30;;;1.40;99.90;1.10;98659.00;;;;5035695;27;94628;-65
2023/03/07 05:05:05;;;;;;;12.07;7.70;;;1.40;99.90;1.10;98662.00;;;;5032178;27;81023;-65
2023/03/07 05:07:31;;;;;;;11.53;7.33;;;1.40;99.90;1.20;98664.00;;;;5026129;27;93648;-65
2023/03/07 05:09:57;;;;;;;10.27;6.23;;;1.40;99.90;1.20;98654.00;;;;5032392;27;81156;-67
2023/03/07 05:12:24;;;;;;;11.73;5.93;;;1.50;99.90;1.30;98665.00;;;;5032471;27;81924;-66
2023/03/07 05:14:49;;;;;;;14.83;7.70;;;1.50;99.90;1.30;98660.00;;;;5016865;27;108307;-66
2023/03/07 05:17:15;;;;;;;11.33;8.60;;;1.50;99.90;1.30;98656.00;;;;5031070;27;109613;-65
2023/03/07 05:19:41;;;;;;;11.50;6.67;;;1.60;99.90;1.40;98653.00;;;;5030682;27;81413;-67
2023/03/07 05:22:07;;;;;;;10.10;7.13;;;1.60;99.90;1.40;98643.00;;;;5024759;27;81273;-67
2023/03/07 05:24:33;;;;;;;13.00;8.83;;;1.70;99.90;1.40;98651.00;;;;5033100;27;81168;-67
2023/03/07 05:26:59;;;;;;;9.27;5.70;;;1.70;99.90;1.50;98652.00;;;;5035000;27;100309;-67
2023/03/07 05:29:25;;;;;;;11.53;5.90;;;1.90;99.90;1.60;98644.00;;;;5033130;27;110424;-66
2023/03/07 05:31:50;;;;;;;7.23;5.63;;;1.70;99.90;1.60;98637.00;;;;5030107;27;101268;-66
2023/03/07 05:34:16;;;;;;;11.40;5.27;;;1.90;99.90;1.70;98641.00;;;;5032665;27;109044;-66
2023/03/07 05:36:42;;;;;;;8.87;6.20;;;1.90;99.90;1.70;98643.00;;;;5034124;27;110455;-67
2023/03/07 05:39:08;;;;;;;9.97;5.87;;;1.80;99.90;1.80;98646.00;;;;5032800;27;110153;-65
2023/03/07 05:41:34;;;;;;;10.90;5.23;;;1.90;99.90;1.80;98632.00;;;;5031893;27;81716;-67
2023/03/07 05:44:00;;;;;;;12.50;6.13;;;2.00;99.90;1.80;98639.00;;;;5027194;27;108468;-67
2023/03/07 05:46:26;;;;;;;10.77;6.53;;;2.00;99.90;1.80;98633.00;;;;5035698;27;81846;-65
2023/03/07 05:48:52;;;;;;;8.27;5.90;;;2.00;99.90;1.90;98632.00;;;;5035796;27;81209;-65
2023/03/07 05:51:17;;;;;;;6.87;4.37;;;2.10;99.90;1.90;98629.00;;;;5033992;27;80854;-67
2023/03/07 05:53:45;;;;;;;8.00;5.43;;;2.10;99.90;1.90;98634.00;;;;5041582;27;110230;-67
2023/03/07 05:56:11;;;;;;;7.53;5.67;;;2.10;99.90;1.90;98627.00;;;;5037479;27;81067;-67
2023/03/07 05:58:37;;;;;;;6.83;4.83;;;2.10;99.90;1.90;98632.00;;;;5033667;27;99106;-66
2023/03/07 06:01:03;;;;;;;6.90;5.40;;;2.20;99.90;1.90;98633.00;;;;5032878;27;81056;-67
2023/03/07 06:03:29;;;;;;;9.47;5.97;;;2.20;99.90;1.90;98631.00;;;;5038209;27;80883;-65
2023/03/07 06:05:55;;;;;;;8.53;5.77;;;2.10;99.90;2.00;98627.00;;;;5039786;27;82330;-66
2023/03/07 06:08:21;;;;;;;9.73;6.67;;;2.20;99.90;2.00;98636.00;;;;5040587;27;96893;-66
2023/03/07 06:10:56;;;;;;;10.20;5.80;;;2.90;99.90;2.00;98623.00;;;;5033878;27;110123;-65
2023/03/07 06:13:24;;;;;;;7.47;5.50;;;2.30;99.90;2.00;98625.00;;;;5040898;27;80632;-67
2023/03/07 06:15:51;;;;;;;8.63;5.67;;;2.20;99.90;2.00;98627.00;;;;5036888;27;81320;-66
2023/03/07 06:18:18;;;;;;;14.03;6.37;;;2.80;99.90;2.00;98634.00;;;;5032197;27;81526;-66
2023/03/07 06:20:44;;;;;;;12.27;6.50;;;2.20;99.90;1.90;98623.00;;;;5034885;27;82285;-67
2023/03/07 06:23:09;;;;;;;9.90;5.37;;;2.20;99.90;2.00;98636.00;;;;5042554;27;108279;-67
2023/03/07 06:25:36;;;;;;;12.33;7.00;;;2.20;99.90;2.00;98632.00;;;;5035322;27;111119;-67
2023/03/07 06:28:01;;;;;;;9.47;6.43;;;2.20;99.90;1.90;98636.00;;;;5033086;27;97909;-65
2023/03/07 06:30:28;;;;;;;11.07;6.03;;;2.20;99.90;1.90;98637.00;;;;5035094;27;99332;-66
2023/03/07 06:32:53;;;;;;;11.33;6.67;;;3.10;99.90;1.90;98633.00;;;;5041346;27;109055;-65
2023/03/07 06:35:19;;;;;;;7.90;5.37;;;3.10;99.90;1.90;98634.00;;;;5032665;27;81529;-66
2023/03/07 06:37:45;;;;;;;10.30;6.20;;;2.10;99.90;1.90;98643.00;;;;5038224;27;82190;-68
2023/03/07 06:40:11;;;;;;;7.97;6.70;;;2.00;99.90;1.90;98647.00;;;;5040686;27;110949;-67
2023/03/07 06:42:37;;;;;;;8.87;5.83;;;2.10;99.90;1.80;98633.00;;;;5040258;27;81767;-69
2023/03/07 06:45:04;;;;;;;8.20;5.20;;;3.00;99.90;1.80;98633.00;;;;5028653;27;111874;-73
2023/03/07 06:47:30;;;;;;;7.93;6.23;;;2.00;99.90;1.80;98630.00;;;;5032997;27;81230;-70
2023/03/07 06:49:56;;;;;;;9.50;6.33;;;2.10;99.90;1.80;98632.00;;;;5029818;27;108319;-71
2023/03/07 06:52:22;;;;;;;7.93;6.30;;;2.00;99.90;1.80;98627.00;;;;5033173;27;91906;-69
2023/03/07 06:54:47;;;;;;;12.00;6.70;;;2.00;99.90;1.80;98638.00;;;;5030380;27;111427;-71
2023/03/07 06:57:13;;;;;;;11.00;5.67;;;3.00;99.90;1.90;98629.00;;;;5028267;27;112465;-69
2023/03/07 06:59:39;;;;;;;9.63;6.00;;;2.10;99.90;1.90;98631.00;;;;5034205;27;95115;-67
2023/03/07 07:02:05;;;;;;;8.17;6.03;;;2.90;99.90;1.90;98632.00;;;;5033541;27;108059;-66
2023/03/07 07:04:32;;;;;;;13.43;7.07;;;2.10;99.90;1.90;98633.00;;;;5032524;27;112149;-67
2023/03/07 07:06:58;;;;;;;10.60;6.20;;;2.10;99.90;1.90;98629.00;;;;5031585;27;83983;-67
2023/03/07 07:09:23;;;;;;;11.50;6.83;;;2.10;99.90;1.90;98644.00;;;;5032999;27;109625;-67
2023/03/07 07:11:49;;;;;;;8.03;5.70;;;2.20;99.90;2.00;98632.00;;;;5027345;27;105710;-67
2023/03/07 07:14:15;;;;;;;7.17;5.33;;;2.20;99.90;2.00;98631.00;;;;5033736;27;112586;-67
2023/03/07 07:16:41;;;;;;;7.77;5.80;;;3.20;99.90;2.00;98617.00;;;;5036026;27;110686;-67
2023/03/07 07:19:08;;;;;;;9.63;6.07;;;2.80;99.90;2.00;98630.00;;;;5033193;27;82497;-67
2023/03/07 07:21:34;;;;;;;8.57;6.20;;;2.30;99.90;2.10;98629.00;;;;5034425;27;83001;-66
2023/03/07 07:24:00;;;;;;;10.67;6.10;;;2.40;99.90;2.10;98623.00;;;;5036505;27;93359;-66
2023/03/07 07:26:26;;;;;;;10.50;6.93;;;2.30;99.90;2.10;98620.00;;;;5032084;27;82969;-67
2023/03/07 07:28:52;;;;;;;9.87;6.60;;;2.20;99.90;2.20;98619.00;;;;5030678;27;102169;-66
2023/03/07 07:31:17;;;;;;;12.77;6.37;;;2.10;99.90;2.20;98616.00;;;;5034876;27;82797;-67
2023/03/07 07:33:45;;;;;;;7.33;5.23;;;2.40;99.90;2.30;98610.00;;;;5027775;27;112436;-66
2023/03/07 07:36:11;;;;;;;11.57;5.67;;;2.50;99.90;2.40;98613.00;;;;5042783;27;82777;-67
2023/03/07 07:38:36;;;;;;;8.97;5.40;;;2.60;99.90;2.50;98615.00;;;;5039338;27;82682;-67
2023/03/07 07:41:02;;;;;;;12.13;5.93;;;3.50;99.90;2.60;98617.00;;;;5033702;27;89975;-67
2023/03/07 07:43:28;;;;;;;9.40;4.43;;;2.70;99.90;2.60;98600.00;;;;5033909;27;105598;-67
2023/03/07 07:45:54;;;;;;;9.60;5.73;;;2.80;99.90;2.70;98610.00;;;;5034243;27;81849;-67
2023/03/07 07:48:20;;;;;;;7.93;5.67;;;2.80;99.90;2.80;98605.00;;;;5032126;27;82478;-67
2023/03/07 07:50:46;;;;;;;6.17;4.30;;;2.90;99.90;2.90;98622.00;;;;5037929;27;107986;-66
2023/03/07 07:53:12;;;;;;;5.33;4.33;;;3.00;99.90;3.00;98627.00;;;;5038673;27;83600;-67
2023/03/07 07:55:38;;;;;;;6.03;4.23;;;4.20;99.90;3.10;98611.00;;;;5035356;27;84370;-66
2023/03/07 07:58:04;;;;;;;8.03;4.73;;;3.20;99.90;3.20;98610.00;;;;5038960;27;110479;-67
2023/03/07 08:00:30;;;;;;;6.43;3.97;;;3.30;99.90;3.30;98610.00;;;;5036593;27;92038;-66
2023/03/07 08:02:55;;;;;;;3.43;3.13;;;3.90;99.90;3.40;98606.00;;;;5043106;27;103756;-66
2023/03/07 08:05:21;;;;;;;8.17;4.63;;;3.50;99.90;3.50;98588.00;;;;5035641;27;82715;-65
2023/03/07 08:07:48;;;;;;;7.40;4.47;;;3.60;99.90;3.60;98592.00;;;;5036767;27;107394;-64
2023/03/07 08:10:15;;;;;;;6.07;3.87;;;4.20;99.90;3.70;98609.00;;;;5040367;27;83201;-65
2023/03/07 08:12:51;;;;;;;6.53;3.80;;;3.80;99.90;3.80;98603.00;;;;5036013;27;83328;-65
2023/03/07 08:15:20;;;;;;;4.10;3.70;;;3.90;99.90;3.80;98611.00;;;;5034696;27;83278;-65
2023/03/07 08:17:47;;;;;;;6.10;4.17;;;4.00;99.90;3.90;98610.00;;;;5031480;27;83625;-65
2023/03/07 08:20:13;;;;;;;8.00;4.27;;;4.80;99.90;4.00;98603.00;;;;5032194;27;82635;-66
2023/03/07 08:22:39;;;;;;;6.30;3.70;;;4.10;99.90;4.10;98604.00;;;;5033488;27;109598;-65
2023/03/07 08:25:17;;;;;;;6.10;3.87;;;4.30;99.90;4.10;98589.00;;;;5035295;27;82977;-64
2023/03/07 08:27:42;;;;;;;5.80;3.33;;;4.30;99.90;4.10;98601.00;;;;5036346;27;82553;-66
2023/03/07 08:30:09;;;;;;;6.13;3.63;;;4.30;99.90;4.20;98588.00;;;;5035839;27;108990;-66
2023/03/07 08:32:35;;;;;;;5.60;3.43;;;4.30;99.90;4.20;98588.00;;;;5032967;27;89828;-66
2023/03/07 08:35:00;;;;;;;7.07;4.07;;;5.10;99.90;4.30;98589.00;;;;5035426;27;112355;-67
2023/03/07 08:37:26;;;;;;;6.90;4.20;;;4.40;99.90;4.30;98594.00;;;;5035318;27;109355;-67
2023/03/07 08:39:52;;;;;;;4.80;2.67;;;4.50;99.90;4.40;98590.00;;;;5033210;27;108147;-67
2023/03/07 08:42:17;;;;;;;5.13;3.53;;;5.70;99.90;4.40;98600.00;;;;5031450;27;83543;-67
2023/03/07 08:44:43;;;;;;;6.37;3.90;;;4.90;99.90;4.50;98594.00;;;;5034034;27;84390;-66
2023/03/07 08:47:10;;;;;;;6.40;3.87;;;4.60;99.90;4.50;98595.00;;;;5029514;27;108723;-68
2023/03/07 08:49:36;;;;;;;4.50;3.13;;;4.70;99.90;4.60;98593.00;;;;5034504;27;82764;-67
2023/03/07 08:52:02;;;;;;;5.67;3.13;;;4.70;99.90;4.60;98592.00;;;;5030155;27;83696;-68
2023/03/07 08:54:28;;;;;;;7.20;3.73;;;4.80;99.90;4.60;98577.00;;;;5048146;27;83367;-69
2023/03/07 08:56:54;;;;;;;7.77;3.27;;;4.70;99.90;4.60;98588.00;;;;5038309;27;82732;-69
2023/03/07 08:59:19;;;;;;;5.57;2.93;;;5.70;99.90;4.60;98583.00;;;;5032664;27;109056;-67
2023/03/07 09:01:45;;;;;;;5.00;2.60;;;5.50;99.90;4.60;98593.00;;;;5027991;27;112104;-70
2023/03/07 09:04:11;;;;;;;3.03;2.73;;;4.80;99.90;4.70;98595.00;;;;5033850;27;111319;-69
2023/03/07 09:06:36;;;;;;;4.20;3.47;;;5.50;99.90;4.80;98594.00;;;;5031089;27;103603;-69
2023/03/07 09:09:02;;;;;;;4.20;3.37;;;5.00;99.90;4.90;98588.00;;;;5033071;27;107317;-68
2023/03/07 09:11:28;;;;;;;4.97;3.13;;;5.10;99.90;4.90;98583.00;;;;5034665;27;101458;-68
2023/03/07 09:13:54;;;;;;;5.37;2.90;;;5.60;99.90;5.00;98582.00;;;;5032351;27;83551;-70
2023/03/07 09:16:20;;;;;;;2.93;2.47;;;5.10;99.90;5.10;98581.00;;;;5034485;27;86676;-71
2023/03/07 09:18:46;;;;;;;3.67;2.83;;;5.20;99.90;5.20;98583.00;;;;5034334;27;82451;-70
2023/03/07 09:21:12;;;;;;;4.47;2.67;;;5.30;99.90;5.30;98576.00;;;;5036419;27;92663;-73
2023/03/07 09:23:37;;;;;;;4.07;2.60;;;5.40;99.90;5.30;98567.00;;;;5031226;27;111813;-74
2023/03/07 09:26:04;;;;;;;5.07;2.60;;;5.50;99.90;5.40;98569.00;;;;5036330;27;109631;-75
2023/03/07 09:28:30;;;;;;;7.73;3.83;;;5.50;99.90;5.50;98562.00;;;;5030538;27;82810;-74
2023/03/07 09:30:56;;;;;;;3.97;2.80;;;5.60;99.90;5.60;98567.00;;;;5028095;27;100382;-74
2023/03/07 09:33:22;;;;;;;6.63;3.50;;;6.10;99.90;5.60;98566.00;;;;5029445;27;112436;-73
2023/03/07 09:35:48;;;;;;;5.37;3.67;;;6.50;99.90;5.60;98571.00;;;;5031618;27;111210;-73
2023/03/07 09:38:14;;;;;;;6.13;3.37;;;5.80;99.90;5.70;98556.00;;;;5034251;27;82673;-72
2023/03/07 09:40:42;;;;;;;5.37;3.37;;;6.20;99.90;5.60;98573.00;;;;5038251;27;87053;-72
2023/03/07 09:43:21;;;;;;;5.03;3.10;;;5.70;99.90;5.60;98562.00;;;;5029856;27;83024;-70
2023/03/07 09:46:28;;;;;;;2.90;2.60;;;5.80;99.90;5.50;98577.00;;;;5031840;27;91669;-72
2023/03/07 09:49:25;;;;;;;4.93;3.33;;;5.80;99.90;5.40;98565.00;;;;5029656;27;83858;-70
2023/03/07 09:51:57;;;;;;;4.53;2.60;;;5.70;99.90;5.20;98580.00;;;;5014941;27;95066;-70
2023/03/07 09:54:40;;;;;;;3.87;3.17;;;5.40;99.90;5.10;98564.00;;;;5028656;27;93354;-68
2023/03/07 09:57:17;;;;;;;5.50;2.40;;;5.40;99.90;5.00;98557.00;;;;5032339;27;83732;-68
2023/03/07 09:59:46;;;;;;;4.27;2.30;;;6.30;99.90;5.00;98554.00;;;;5034376;27;82803;-67
2023/03/07 10:02:42;;;;;;;6.93;3.07;;;5.20;99.90;4.90;98561.00;;;;5027497;27;97989;-66
2023/03/07 10:05:22;;;;;;;3.13;2.13;;;5.10;99.90;4.90;98547.00;;;;5030472;27;83939;-66
2023/03/07 10:07:48;;;;;;;3.90;2.20;;;5.10;99.90;4.90;98559.00;;;;5032047;27;101036;-67
2023/03/07 10:10:21;;;;;;;3.67;2.43;;;5.00;99.90;4.90;98549.00;;;;5036681;27;108335;-67
2023/03/07 10:13:22;;;;;;;3.87;2.70;;;5.10;99.90;4.90;98530.00;;;;5032629;27;106054;-67
2023/03/07 10:15:51;;;;;;;2.67;2.47;;;5.10;99.90;5.00;98535.00;;;;5030229;27;82676;-65
2023/03/07 10:18:39;;;;;;;3.93;2.70;;;5.10;99.90;5.10;98539.00;;;;5034343;27;98257;-67
2023/03/07 10:21:48;;;;;;;3.23;1.97;;;5.20;99.90;5.20;98543.00;;;;5028174;27;82799;-67
2023/03/07 10:24:42;;;;;;;3.63;2.70;;;5.40;99.90;5.30;98538.00;;;;5033906;27;92670;-66
2023/03/07 10:27:14;;;;;;;3.53;2.27;;;5.50;99.90;5.30;98534.00;;;;5029307;27;84403;-66
2023/03/07 10:29:49;;;;;;;4.80;2.97;;;5.40;99.90;5.30;98528.00;;;;5028876;27;83698;-66
2023/03/07 10:32:47;;;;;;;4.40;2.30;;;5.40;99.90;5.30;98529.00;;;;5033312;27;82832;-66
2023/03/07 10:35:21;;;;;;;5.93;3.17;;;5.60;99.90;5.40;98527.00;;;;5031906;27;82727;-65
2023/03/07 10:38:27;;;;;;;5.57;2.27;;;5.50;99.90;5.40;98528.00;;;;5031526;27;83215;-66
2023/03/07 10:41:12;;;;;;;2.83;2.20;;;5.60;99.90;5.40;98526.00;;;;5033236;27;82650;-65
2023/03/07 10:43:38;;;;;;;3.40;2.53;;;5.50;99.90;5.40;98524.00;;;;5034231;27;82061;-66
2023/03/07 10:46:18;;;;;;;1.97;1.30;;;5.60;99.90;5.50;98528.00;;;;5030963;27;112489;-66
2023/03/07 10:48:52;;;;;;;5.07;2.73;;;5.60;99.90;5.50;98536.00;;;;5029821;27;103647;-64
2023/03/07 10:51:26;;;;;;;4.47;2.80;;;5.60;99.90;5.50;98523.00;;;;5031796;27;83758;-65
2023/03/07 10:53:55;;;;;;;2.87;2.20;;;5.70;99.90;5.60;98518.00;;;;5032522;27;84164;-64
2023/03/07 10:56:21;;;;;;;5.97;3.20;;;6.20;99.90;5.70;98504.00;;;;5029941;27;83408;-66
2023/03/07 10:59:13;;;;;;;5.87;2.83;;;5.70;99.90;5.80;98514.00;;;;5026753;27;83527;-65
2023/03/07 11:01:54;;;;;;;5.30;2.80;;;6.10;99.90;5.90;98497.00;;;;5031085;27;82529;-66
2023/03/07 11:04:22;;;;;;;3.00;2.57;;;6.60;99.90;6.00;98498.00;;;;5032994;27;95125;-65
2023/03/07 11:06:57;;;;;;;6.57;3.13;;;6.90;99.90;6.10;98493.00;;;;5031006;27;83602;-66
2023/03/07 11:09:27;;;;;;;6.43;4.00;;;6.30;99.90;6.10;98495.00;;;;5031328;27;83711;-65